Flight Track Log - Related Links

Times and Time Zones

All times are in EDT time to prevent confusion due to time zone crossing. See the SWA2068 flight status page for this flight to view local times or setup timezone preferences in your user account.

Time Position Orientation Groundspeed Altitude Reporting Facility
EDT Latitude Longitude Course Direction KTS MPH feet Rate Location/Type
Sat 09:54:04 AM 39.1667 -76.7167 129° Southeast 174 200 2,100  Level Potomac TRACON
Sat 09:55:52 AM 39.1336 -76.6647 129° Southeast 131 151 6,000 2,237 Climbing Washington Center
Sat 09:56:53 AM 39.1406 -76.5792 84° East 181 208 8,400 3,049 Climbing Washington Center
Sat 09:57:54 AM 39.1439 -76.4292 88° East 271 312 12,200 3,273 Climbing Washington Center
Sat 09:58:54 AM 39.1469 -76.2875 88° East 317 365 15,000 2,821 Climbing Washington Center
Sat 09:59:51 AM 39.1603 -76.1350 84° East 389 448 17,700 2,824 Climbing Washington Center
Sat 10:00:53 AM 39.1817 -75.9772 80° East 424 488 20,600 2,780 Climbing Washington Center
Sat 10:01:54 AM 39.2258 -75.8328 68° East 430 495 23,400 2,100 Climbing Washington Center
Sat 10:02:53 AM 39.3197 -75.7150 44° Northeast 430 495 24,800 1,664 Climbing Washington Center
Sat 10:03:53 AM 39.4156 -75.5917 45° Northeast 460 529 26,700 2,033 Climbing Washington Center
Sat 10:04:54 AM 39.5114 -75.4678 45° Northeast 472 543 28,900 1,140 Climbing Washington Center
Sat 10:05:54 AM 39.6028 -75.3492 45° Northeast 472 543 29,000 51 Climbing Washington Center
Sat 10:06:52 AM 39.6964 -75.2219 46° Northeast 467 537 29,000  Level Washington Center
Sat 10:08:10 AM 39.8172 -75.0439 49° Northeast 491 565 29,000  Level New York Center
Sat 10:09:10 AM 39.9197 -74.9175 43° Northeast 497 572 29,000  Level New York Center
Sat 10:10:08 AM 40.0153 -74.8067 42° Northeast 510 587 29,000  Level New York Center
Sat 10:11:09 AM 40.1325 -74.6667 42° Northeast 510 587 29,000  Level New York Center
Sat 10:12:10 AM 40.2258 -74.5525 43° Northeast 510 587 29,000  Level New York Center
Sat 10:13:09 AM 40.3431 -74.4089 43° Northeast 515 593 29,000  Level New York Center
Sat 10:14:09 AM 40.4492 -74.2783 43° Northeast 515 593 29,000  Level New York Center
Sat 10:15:09 AM 40.5356 -74.1736 43° Northeast 510 587 29,000 -1,356 Level New York Center
Sat 10:17:06 AM 40.7464 -73.9194 42° Northeast 519 597 25,000 -1,719 Descending Boston Center
Sat 10:18:07 AM 40.8458 -73.7981 43° Northeast 498 573 23,900 -508 Descending Boston Center
Sat 10:19:04 AM 40.9431 -73.6819 42° Northeast 478 550 24,000 -356 Climbing Boston Center
Sat 10:20:05 AM 41.0625 -73.6239 20° North 456 525 23,200 -595 Descending Boston Center
Sat 10:21:05 AM 41.1897 -73.6150 North 439 505 22,800 -744 Descending Boston Center
Sat 10:22:06 AM 41.3169 -73.6036 North 445 512 21,700 -1,388 Descending Boston Center
Sat 10:23:06 AM 41.4400 -73.5892 North 445 512 20,000 -2,380 Descending Boston Center
Sat 10:24:07 AM 41.5672 -73.5806 North 433 498 16,900 -2,797 Descending Boston Center
Sat 10:25:04 AM 41.6800 -73.5686 North 415 478 14,500 -2,644 Descending Boston Center
Sat 10:26:05 AM 41.7864 -73.5567 North 398 458 11,700 -1,736 Descending Boston Center
Sat 10:27:05 AM 41.8906 -73.5500 North 378 435 11,000 -350 Descending Boston Center
Sat 10:28:05 AM 41.9928 -73.5378 North 373 429 11,000  Level Boston Center
Sat 10:28:51 AM 42.0764 -73.5308 North 374 430 11,000  Level Boston Center
Sat 10:30:05 AM 42.1889 -73.5161 North 368 423 11,000 -98 Level Boston Center
Sat 10:30:53 AM 42.2808 -73.5036 North 368 423 10,800 -545 Descending Boston Center
Sat 10:32:06 AM 42.3825 -73.5475 342° North 285 328 9,900 -985 Descending Boston Center
Sat 10:33:07 AM 42.4531 -73.5769 343° North 282 325 8,600 -1,424 Descending Boston Center
Sat 10:34:04 AM 42.5133 -73.6033 342° North 260 299 7,100 -1,487 Descending Boston Center
Sat 10:35:04 AM 42.5858 -73.6386 340° North 255 293 5,700 -1,388 Descending Boston Center
Sat 10:36:05 AM 42.6378 -73.6594 344° North 229 264 4,300 -1,339 Descending Boston Center
Sat 10:37:05 AM 42.6981 -73.6775 348° North 210 242 3,000 -1,134 Descending Boston Center
Sat 10:38:12 AM 42.7542 -73.6900 351° North 155 178 1,900 -793 Descending Boston Center
Sat 10:39:06 AM 42.7600 -73.7239 283° West 110 127 1,400 -726 Descending Boston Center
Sat 10:40:16 AM 42.7489 -73.7831 256° West 120 138 400 -51 Descending Boston Center
Sat 10:41:04 AM 42.7517 -73.7125 87° East 78 90 1,300 440 Climbing Boston Center
Sat 10:42:05 AM 42.7350 -73.7122 179° South 84 97 1,200 -98 Descending Boston Center

Login

Don't have an account? Register now (free) for customized features, flight alerts, and more!